createdAt,value
2022-08-17T00:00:34.234Z,19.91
2022-08-17T00:03:31.640Z,20.21
2022-08-17T00:06:14.040Z,20.01
2022-08-17T00:08:53.984Z,19.85
2022-08-17T00:11:30.956Z,19.86
2022-08-17T00:14:09.650Z,20.10
2022-08-17T00:16:50.448Z,20.16
2022-08-17T00:19:26.606Z,20.14
2022-08-17T00:22:32.622Z,19.81
2022-08-17T00:24:47.215Z,20.18
2022-08-17T00:27:14.242Z,20.15
2022-08-17T00:29:42.163Z,19.83
2022-08-17T00:33:11.614Z,19.27
2022-08-17T00:34:56.119Z,18.89
2022-08-17T00:37:23.097Z,18.56
2022-08-17T00:39:50.189Z,18.43
2022-08-17T00:42:19.749Z,18.39
2022-08-17T00:44:46.944Z,18.22
2022-08-17T00:47:14.000Z,18.17
2022-08-17T00:49:41.171Z,18.51
2022-08-17T00:52:20.474Z,18.59
2022-08-17T00:54:49.746Z,18.97
2022-08-17T00:57:31.256Z,19.33
2022-08-17T01:00:27.360Z,19.77
2022-08-17T01:03:08.395Z,19.87
2022-08-17T01:05:38.831Z,19.71
2022-08-17T01:08:15.185Z,19.44
2022-08-17T01:10:58.691Z,19.00
2022-08-17T01:13:40.989Z,18.57
2022-08-17T01:16:19.052Z,18.36
2022-08-17T01:18:52.211Z,18.43
2022-08-17T01:22:14.403Z,18.85
2022-08-17T01:24:59.998Z,19.31
2022-08-17T01:27:28.543Z,19.49
2022-08-17T01:30:02.680Z,19.63
2022-08-17T01:32:30.391Z,19.39
2022-08-17T01:34:58.349Z,19.23
2022-08-17T01:37:42.550Z,18.93
2022-08-17T01:40:39.985Z,18.51
2022-08-17T01:43:30.082Z,18.15
2022-08-17T01:46:02.463Z,18.11
2022-08-17T01:48:38.225Z,18.13
2022-08-17T01:51:07.514Z,18.26
2022-08-17T01:53:44.268Z,18.53
2022-08-17T01:56:17.253Z,18.55
2022-08-17T01:58:44.887Z,18.93
2022-08-17T02:01:14.579Z,19.20
2022-08-17T02:03:42.063Z,19.21
2022-08-17T02:06:27.658Z,19.13
2022-08-17T02:09:01.526Z,19.09
2022-08-17T02:11:34.345Z,19.17
2022-08-17T02:14:03.009Z,19.13
2022-08-17T02:16:38.428Z,19.10
2022-08-17T02:19:15.622Z,19.06
2022-08-17T02:21:50.173Z,18.93
2022-08-17T02:24:58.875Z,18.59
2022-08-17T02:27:18.575Z,17.92
2022-08-17T02:29:45.623Z,17.60
2022-08-17T02:32:28.495Z,17.30
2022-08-17T02:34:58.398Z,17.08
2022-08-17T02:37:28.189Z,16.73
2022-08-17T02:39:57.159Z,17.15
2022-08-17T02:42:44.426Z,17.67
2022-08-17T02:45:18.278Z,18.01
2022-08-17T02:47:45.907Z,18.05
2022-08-17T02:50:16.502Z,18.22
2022-08-17T02:52:53.253Z,18.10
2022-08-17T02:55:35.302Z,18.13
2022-08-17T02:58:03.646Z,17.79
2022-08-17T03:00:41.070Z,17.70
2022-08-17T03:03:10.739Z,17.68
2022-08-17T03:05:38.632Z,17.35
2022-08-17T03:08:07.212Z,17.13
2022-08-17T03:10:39.960Z,16.93
2022-08-17T03:13:07.422Z,16.89
2022-08-17T03:15:35.304Z,17.45
2022-08-17T03:18:03.719Z,17.67
2022-08-17T03:20:33.799Z,17.79
2022-08-17T03:23:01.887Z,17.75
2022-08-17T03:25:42.748Z,17.32
2022-08-17T03:28:12.230Z,17.05
2022-08-17T03:30:40.319Z,17.29
2022-08-17T03:33:12.148Z,17.17
2022-08-17T03:35:41.087Z,17.14
2022-08-17T03:38:11.355Z,17.16
2022-08-17T03:40:57.942Z,17.23
2022-08-17T03:43:30.845Z,16.98
2022-08-17T03:46:27.252Z,16.91
2022-08-17T03:49:15.697Z,16.84
2022-08-17T03:52:01.236Z,16.77
2022-08-17T03:54:46.809Z,16.73
2022-08-17T03:57:14.170Z,16.79
2022-08-17T03:59:41.663Z,16.95
2022-08-17T04:02:18.952Z,17.15
2022-08-17T04:04:46.681Z,17.39
2022-08-17T04:07:13.705Z,17.50
2022-08-17T04:09:40.708Z,17.34
2022-08-17T04:12:07.837Z,17.26
2022-08-17T04:14:53.147Z,17.14
2022-08-17T04:17:28.621Z,17.23
2022-08-17T04:19:56.073Z,17.15
2022-08-17T04:22:31.262Z,17.13
2022-08-17T04:25:19.016Z,17.12
2022-08-17T04:27:46.149Z,17.06
2022-08-17T04:30:14.500Z,17.00
2022-08-17T04:33:15.791Z,17.09
2022-08-17T04:35:51.430Z,17.13
2022-08-17T04:38:24.380Z,17.34
2022-08-17T04:41:10.845Z,17.76
2022-08-17T04:43:43.005Z,17.92
2022-08-17T04:46:19.726Z,17.92
2022-08-17T04:48:53.646Z,18.28
2022-08-17T04:51:36.484Z,18.56
2022-08-17T04:54:15.951Z,18.75
2022-08-17T04:56:43.551Z,18.91
2022-08-17T04:59:21.107Z,18.96
2022-08-17T05:01:52.528Z,19.14
2022-08-17T05:04:33.938Z,19.32
2022-08-17T05:07:04.445Z,19.52
2022-08-17T05:09:31.912Z,19.60
2022-08-17T05:12:02.554Z,19.66
2022-08-17T05:14:33.069Z,19.79
2022-08-17T05:17:02.019Z,20.02
2022-08-17T05:19:34.460Z,20.27
2022-08-17T05:22:06.192Z,20.54
2022-08-17T05:24:40.731Z,20.79
2022-08-17T05:27:11.034Z,20.94
2022-08-17T05:29:46.185Z,21.15
2022-08-17T05:32:38.392Z,21.41
2022-08-17T05:35:01.260Z,21.60
2022-08-17T05:37:28.680Z,21.67
2022-08-17T05:39:56.033Z,21.79
2022-08-17T05:42:23.998Z,21.90
2022-08-17T05:44:51.050Z,21.85
2022-08-17T05:47:18.775Z,21.74
2022-08-17T05:49:48.279Z,21.93
2022-08-17T05:53:15.570Z,22.13
2022-08-17T05:56:29.337Z,22.36
2022-08-17T05:59:48.570Z,22.75
2022-08-17T06:02:51.411Z,23.01
2022-08-17T06:06:04.157Z,23.13
2022-08-17T06:09:22.862Z,23.19
2022-08-17T06:12:35.728Z,23.36
2022-08-17T06:15:30.736Z,23.53
2022-08-17T06:18:08.192Z,23.87
2022-08-17T06:20:59.823Z,23.93
2022-08-17T06:23:43.326Z,24.19
2022-08-17T06:26:25.895Z,24.21
2022-08-17T06:29:18.815Z,24.53
2022-08-17T06:31:46.058Z,24.99
2022-08-17T06:34:13.535Z,25.10
2022-08-17T06:37:09.051Z,25.34
2022-08-17T06:40:37.183Z,25.16
2022-08-17T06:43:48.797Z,25.32
2022-08-17T06:46:48.460Z,25.31
2022-08-17T06:49:33.681Z,25.58
2022-08-17T06:52:45.826Z,25.64
2022-08-17T06:55:45.158Z,25.86
2022-08-17T06:58:16.461Z,26.08
2022-08-17T07:00:47.657Z,25.44
2022-08-17T07:03:55.719Z,26.12
2022-08-17T07:06:32.317Z,26.12
2022-08-17T07:09:37.673Z,26.22
2022-08-17T07:12:27.932Z,25.75
2022-08-17T07:15:21.670Z,25.77
2022-08-17T07:17:49.446Z,25.84
2022-08-17T07:20:22.697Z,25.82
2022-08-17T07:23:28.661Z,26.40
2022-08-17T07:26:09.025Z,26.97
2022-08-17T07:28:38.549Z,26.91
2022-08-17T07:31:06.851Z,26.88
2022-08-17T07:33:36.772Z,27.35
2022-08-17T07:36:04.300Z,27.48
2022-08-17T07:38:35.425Z,27.29
2022-08-17T07:41:08.347Z,27.20
2022-08-17T07:43:40.860Z,27.16
2022-08-17T07:46:52.656Z,27.53
2022-08-17T07:49:31.700Z,27.70
2022-08-17T07:52:51.274Z,27.68
2022-08-17T07:55:35.013Z,27.98
2022-08-17T07:58:03.366Z,28.19
2022-08-17T08:00:33.054Z,28.45
2022-08-17T08:03:20.585Z,28.77
2022-08-17T08:06:03.003Z,28.77
2022-08-17T08:08:42.685Z,28.88
2022-08-17T08:11:28.312Z,28.73
2022-08-17T08:13:55.301Z,28.86
2022-08-17T08:16:31.306Z,28.84
2022-08-17T08:19:01.933Z,29.00
2022-08-17T08:22:22.591Z,29.35
2022-08-17T08:25:22.900Z,28.93
2022-08-17T08:28:21.285Z,29.62
2022-08-17T08:30:58.586Z,29.28
2022-08-17T08:33:56.523Z,29.54
2022-08-17T08:37:17.593Z,29.32
2022-08-17T08:40:08.303Z,29.53
2022-08-17T08:43:22.321Z,29.54
2022-08-17T08:46:20.001Z,30.12
2022-08-17T08:50:04.732Z,30.02
2022-08-17T08:53:05.054Z,30.25
2022-08-17T08:55:59.970Z,29.98
2022-08-17T08:59:23.969Z,30.71
2022-08-17T09:02:09.502Z,30.61
2022-08-17T09:05:14.483Z,30.44
2022-08-17T09:08:27.364Z,30.72
2022-08-17T09:11:17.313Z,31.09
2022-08-17T09:14:21.895Z,31.08
2022-08-17T09:17:13.804Z,30.91
2022-08-17T09:19:56.254Z,30.95
2022-08-17T09:22:42.667Z,30.72
2022-08-17T09:25:23.290Z,31.11
2022-08-17T09:28:00.915Z,31.35
2022-08-17T09:30:45.408Z,31.46
2022-08-17T09:33:23.034Z,31.33
2022-08-17T09:36:11.458Z,31.19
2022-08-17T09:39:07.245Z,31.34
2022-08-17T09:41:56.221Z,31.40
2022-08-17T09:44:53.465Z,32.29
2022-08-17T09:47:47.443Z,32.52
2022-08-17T09:51:03.771Z,31.62
2022-08-17T09:53:23.649Z,32.37
2022-08-17T09:56:43.748Z,31.46
2022-08-17T10:00:18.647Z,31.34
2022-08-17T10:03:21.991Z,31.21
2022-08-17T10:06:27.368Z,31.83
2022-08-17T10:09:17.172Z,31.87
2022-08-17T10:12:11.399Z,32.28
2022-08-17T10:15:50.434Z,32.13
2022-08-17T10:18:47.715Z,32.11
2022-08-17T10:21:37.622Z,32.35
2022-08-17T10:25:21.578Z,31.93
2022-08-17T10:27:54.026Z,32.55
2022-08-17T10:30:28.064Z,33.31
2022-08-17T10:33:12.826Z,32.18
2022-08-17T10:35:53.606Z,32.04
2022-08-17T10:38:34.012Z,32.29
2022-08-17T10:41:36.931Z,32.78
2022-08-17T10:44:38.043Z,32.67
2022-08-17T10:47:18.183Z,32.15
2022-08-17T10:49:54.194Z,32.70
2022-08-17T10:52:24.841Z,33.03
2022-08-17T10:54:51.926Z,33.90
2022-08-17T10:57:33.717Z,34.03
2022-08-17T11:00:25.516Z,33.26
2022-08-17T11:02:57.432Z,32.76
2022-08-17T11:06:06.519Z,32.42
2022-08-17T11:09:26.245Z,32.44
2022-08-17T11:12:37.545Z,32.39
2022-08-17T11:16:16.766Z,32.86
2022-08-17T11:19:14.228Z,33.38
2022-08-17T11:22:42.033Z,34.05
2022-08-17T11:25:22.608Z,33.33
2022-08-17T11:28:05.115Z,34.32
2022-08-17T11:30:57.838Z,33.84
2022-08-17T11:33:34.210Z,33.59
2022-08-17T11:36:16.342Z,33.33
2022-08-17T11:39:21.394Z,32.87
2022-08-17T11:42:54.117Z,32.90
2022-08-17T11:46:13.654Z,33.65
2022-08-17T11:49:11.193Z,34.32
2022-08-17T11:52:34.377Z,34.36
2022-08-17T11:55:17.991Z,34.96
2022-08-17T11:58:25.430Z,34.50
2022-08-17T12:00:58.398Z,34.95
2022-08-17T12:03:31.845Z,35.08
2022-08-17T12:06:30.246Z,35.92
2022-08-17T12:09:15.828Z,34.54
2022-08-17T12:12:13.431Z,33.37
2022-08-17T12:15:10.076Z,34.09
2022-08-17T12:17:41.070Z,34.35
2022-08-17T12:20:38.582Z,35.10
2022-08-17T12:23:44.301Z,35.22
2022-08-17T12:26:30.161Z,35.15
2022-08-17T12:29:18.123Z,35.26
2022-08-17T12:32:03.486Z,35.01
2022-08-17T12:34:42.517Z,34.60
2022-08-17T12:37:27.401Z,33.28
2022-08-17T12:40:16.577Z,35.37
2022-08-17T12:43:21.805Z,33.62
2022-08-17T12:46:13.340Z,35.87
2022-08-17T12:48:59.344Z,35.85
2022-08-17T12:51:28.949Z,35.30
2022-08-17T12:53:56.314Z,34.17
2022-08-17T12:56:23.462Z,34.41
2022-08-17T12:58:56.596Z,33.40
2022-08-17T13:01:26.074Z,33.97
2022-08-17T13:03:59.637Z,33.57
2022-08-17T13:06:35.206Z,33.32
2022-08-17T13:09:22.506Z,35.02
2022-08-17T13:12:05.175Z,34.79
2022-08-17T13:14:33.355Z,35.28
2022-08-17T13:17:09.728Z,36.04
2022-08-17T13:19:49.941Z,35.40
2022-08-17T13:22:24.620Z,34.81
2022-08-17T13:24:58.209Z,34.91
2022-08-17T13:27:28.098Z,35.07
2022-08-17T13:30:02.179Z,34.98
2022-08-17T13:32:43.861Z,34.54
2022-08-17T13:35:50.107Z,34.90
2022-08-17T13:38:49.461Z,34.91
2022-08-17T13:41:46.928Z,33.77
2022-08-17T13:44:40.306Z,33.85
2022-08-17T13:47:27.771Z,34.28
2022-08-17T13:49:55.511Z,33.91
2022-08-17T13:52:43.515Z,33.52
2022-08-17T13:55:22.597Z,34.00
2022-08-17T13:58:07.017Z,33.26
2022-08-17T14:00:36.664Z,33.35
2022-08-17T14:03:05.598Z,33.76
2022-08-17T14:05:33.751Z,33.56
2022-08-17T14:08:06.797Z,33.13
2022-08-17T14:10:36.319Z,33.70
2022-08-17T14:13:04.959Z,33.17
2022-08-17T14:15:56.005Z,34.42
2022-08-17T14:18:51.995Z,34.14
2022-08-17T14:21:08.413Z,33.28
2022-08-17T14:23:37.179Z,33.31
2022-08-17T14:26:04.833Z,33.02
2022-08-17T14:28:32.326Z,32.95
2022-08-17T14:31:01.111Z,32.98
2022-08-17T14:33:30.968Z,32.98
2022-08-17T14:35:58.173Z,33.09
2022-08-17T14:38:25.118Z,33.47
2022-08-17T14:40:52.503Z,33.49
2022-08-17T14:43:20.420Z,33.51
2022-08-17T14:45:47.701Z,33.62
2022-08-17T14:48:14.757Z,33.74
2022-08-17T14:50:43.748Z,33.90
2022-08-17T14:53:14.079Z,34.12
2022-08-17T14:55:41.323Z,34.38
2022-08-17T14:58:09.066Z,34.05
2022-08-17T15:00:39.889Z,33.52
2022-08-17T15:03:06.935Z,33.54
2022-08-17T15:05:37.799Z,33.19
2022-08-17T15:08:06.418Z,33.60
2022-08-17T15:10:34.044Z,33.43
2022-08-17T15:13:01.581Z,33.08
2022-08-17T15:15:29.327Z,32.94
2022-08-17T15:17:57.114Z,33.45
2022-08-17T15:20:29.600Z,33.16
2022-08-17T15:22:58.952Z,34.14
2022-08-17T15:25:31.920Z,33.78
2022-08-17T15:28:00.526Z,33.31
2022-08-17T15:30:28.063Z,33.25
2022-08-17T15:33:01.791Z,33.02
2022-08-17T15:35:33.862Z,32.88
2022-08-17T15:38:11.833Z,32.97
2022-08-17T15:40:45.333Z,32.71
2022-08-17T15:43:27.008Z,32.87
2022-08-17T15:46:19.307Z,32.87
2022-08-17T15:48:53.382Z,32.79
2022-08-17T15:51:30.996Z,32.80
2022-08-17T15:54:17.234Z,32.68
2022-08-17T15:56:49.405Z,32.62
2022-08-17T15:59:16.414Z,32.67
2022-08-17T16:03:15.105Z,32.56
2022-08-17T16:04:31.739Z,33.06
2022-08-17T16:07:00.054Z,32.95
2022-08-17T16:09:27.643Z,33.15
2022-08-17T16:11:56.060Z,33.51
2022-08-17T16:14:30.236Z,33.94
2022-08-17T16:17:00.618Z,33.73
2022-08-17T16:19:27.701Z,33.25
2022-08-17T16:21:54.705Z,32.92
2022-08-17T16:24:21.915Z,33.11
2022-08-17T16:26:48.880Z,33.22
2022-08-17T16:29:15.892Z,32.80
2022-08-17T16:31:43.243Z,32.27
2022-08-17T16:34:17.717Z,33.10
2022-08-17T16:36:54.750Z,32.48
2022-08-17T16:39:28.815Z,31.91
2022-08-17T16:41:57.156Z,31.91
2022-08-17T16:44:25.628Z,32.17
2022-08-17T16:46:53.344Z,32.01
2022-08-17T16:49:35.865Z,32.06
2022-08-17T16:52:12.497Z,31.85
2022-08-17T16:54:44.321Z,31.65
2022-08-17T16:57:13.970Z,31.94
2022-08-17T16:59:45.016Z,31.89
2022-08-17T17:02:27.639Z,32.01
2022-08-17T17:05:27.201Z,31.82
2022-08-17T17:08:25.591Z,31.51
2022-08-17T17:10:55.894Z,31.55
2022-08-17T17:13:40.442Z,31.56
2022-08-17T17:16:50.415Z,31.32
2022-08-17T17:19:48.248Z,31.52
2022-08-17T17:22:21.707Z,31.49
2022-08-17T17:25:20.066Z,31.29
2022-08-17T17:28:24.697Z,31.08
2022-08-17T17:31:46.009Z,31.38
2022-08-17T17:34:16.482Z,31.14
2022-08-17T17:36:59.831Z,31.03
2022-08-17T17:39:44.223Z,30.98
2022-08-17T17:42:20.175Z,30.96
2022-08-17T17:45:15.888Z,30.79
2022-08-17T17:47:44.576Z,30.65
2022-08-17T17:50:12.023Z,30.58
2022-08-17T17:53:09.443Z,30.48
2022-08-17T17:56:33.098Z,30.47
2022-08-17T17:59:12.745Z,30.44
2022-08-17T18:02:03.885Z,30.38
2022-08-17T18:04:55.794Z,30.10
2022-08-17T18:07:42.809Z,30.02
2022-08-17T18:10:43.258Z,29.71
2022-08-17T18:13:54.123Z,29.61
2022-08-17T18:16:22.502Z,29.42
2022-08-17T18:18:52.535Z,29.44
2022-08-17T18:21:46.337Z,29.38
2022-08-17T18:24:14.093Z,29.19
2022-08-17T18:27:08.412Z,29.18
2022-08-17T18:29:44.743Z,28.99
2022-08-17T18:32:37.212Z,28.98
2022-08-17T18:35:10.222Z,28.81
2022-08-17T18:37:45.523Z,28.86
2022-08-17T18:40:21.082Z,28.69
2022-08-17T18:43:13.847Z,28.55
2022-08-17T18:45:50.028Z,28.34
2022-08-17T18:48:58.994Z,28.39
2022-08-17T18:51:42.383Z,28.27
2022-08-17T18:54:24.593Z,28.43
2022-08-17T18:56:59.867Z,28.30
2022-08-17T18:59:48.160Z,28.41
2022-08-17T19:05:27.734Z,28.09
2022-08-17T19:08:13.773Z,27.85
2022-08-17T19:10:45.861Z,27.78
2022-08-17T19:13:41.943Z,27.66
2022-08-17T19:17:05.851Z,27.71
2022-08-17T19:20:12.732Z,27.52
2022-08-17T19:23:29.337Z,27.43
2022-08-17T19:26:02.365Z,27.23
2022-08-17T19:28:48.605Z,27.32
2022-08-17T19:31:27.860Z,27.26
2022-08-17T19:33:57.042Z,27.44
2022-08-17T19:36:31.090Z,27.18
2022-08-17T19:39:51.664Z,27.08
2022-08-17T19:42:55.302Z,26.17
2022-08-17T19:46:19.318Z,27.05
2022-08-17T19:49:15.744Z,26.90
2022-08-17T19:52:22.523Z,26.89
2022-08-17T19:55:31.927Z,26.55
2022-08-17T19:58:17.977Z,26.79
2022-08-17T20:00:51.666Z,26.73
2022-08-17T20:03:34.788Z,26.69
2022-08-17T20:06:13.101Z,26.67
2022-08-17T20:09:33.870Z,26.54
2022-08-17T20:12:30.708Z,26.43
2022-08-17T20:15:10.582Z,26.36
2022-08-17T20:17:44.946Z,26.41
2022-08-17T20:21:07.613Z,26.33
2022-08-17T20:24:18.331Z,26.00
2022-08-17T20:26:59.504Z,25.94
2022-08-17T20:30:09.283Z,25.85
2022-08-17T20:32:56.982Z,25.82
2022-08-17T20:35:39.159Z,25.80
2022-08-17T20:38:33.694Z,25.62
2022-08-17T20:41:03.851Z,25.66
2022-08-17T20:43:33.403Z,25.40
2022-08-17T20:46:38.307Z,25.49
2022-08-17T20:49:11.274Z,25.61
2022-08-17T20:52:01.614Z,25.43
2022-08-17T20:54:50.180Z,25.39
2022-08-17T20:57:47.362Z,25.40
2022-08-17T21:00:29.320Z,25.51
2022-08-17T21:03:23.872Z,25.50
2022-08-17T21:06:15.331Z,25.52
2022-08-17T21:09:17.458Z,25.50
2022-08-17T21:12:04.504Z,25.59
2022-08-17T21:15:07.010Z,25.47
2022-08-17T21:17:59.076Z,25.42
2022-08-17T21:21:06.344Z,25.42
2022-08-17T21:24:31.422Z,25.48
2022-08-17T21:27:28.286Z,25.34
2022-08-17T21:30:10.135Z,25.32
2022-08-17T21:32:41.929Z,25.33
2022-08-17T21:35:28.490Z,25.29
2022-08-17T21:38:04.317Z,25.22
2022-08-17T21:40:33.863Z,25.20
2022-08-17T21:43:32.935Z,25.24
2022-08-17T21:46:23.844Z,25.11
2022-08-17T21:48:54.406Z,25.03
2022-08-17T21:51:28.052Z,24.91
2022-08-17T21:54:04.461Z,24.93
2022-08-17T21:56:40.577Z,24.73
2022-08-17T21:59:19.440Z,24.84
2022-08-17T22:02:19.361Z,24.76
2022-08-17T22:05:06.726Z,24.87
2022-08-17T22:08:06.394Z,24.77
2022-08-17T22:10:45.675Z,24.73
2022-08-17T22:13:29.633Z,24.83
2022-08-17T22:16:29.543Z,24.64
2022-08-17T22:18:59.193Z,24.70
2022-08-17T22:21:26.725Z,24.52
2022-08-17T22:24:22.587Z,24.52
2022-08-17T22:27:11.097Z,24.40
2022-08-17T22:29:59.545Z,24.54
2022-08-17T22:32:46.426Z,24.36
2022-08-17T22:35:41.114Z,24.30
2022-08-17T22:38:20.393Z,24.31
2022-08-17T22:40:55.741Z,24.30
2022-08-17T22:43:28.568Z,24.15
2022-08-17T22:45:59.846Z,24.31
2022-08-17T22:48:30.322Z,24.21
2022-08-17T22:51:12.874Z,24.26
2022-08-17T22:54:36.429Z,24.13
2022-08-17T22:57:23.760Z,24.17
2022-08-17T22:59:55.695Z,24.08
2022-08-17T23:02:33.753Z,24.02
2022-08-17T23:05:16.652Z,24.00
2022-08-17T23:07:46.643Z,24.08
2022-08-17T23:10:14.969Z,24.00
2022-08-17T23:12:42.052Z,23.84
2022-08-17T23:15:17.916Z,23.90
2022-08-17T23:17:46.267Z,23.93
2022-08-17T23:20:17.433Z,23.78
2022-08-17T23:22:51.921Z,23.90
2022-08-17T23:25:31.379Z,23.76
2022-08-17T23:28:03.563Z,23.97
2022-08-17T23:30:41.082Z,23.62
2022-08-17T23:33:33.605Z,23.75
2022-08-17T23:36:01.795Z,23.72
2022-08-17T23:38:28.914Z,23.82
2022-08-17T23:40:59.895Z,23.81
2022-08-17T23:43:28.326Z,23.76
2022-08-17T23:45:59.547Z,23.72
2022-08-17T23:48:35.454Z,23.63
2022-08-17T23:51:20.181Z,23.67
2022-08-17T23:54:07.216Z,23.56
2022-08-17T23:56:41.986Z,23.44
2022-08-17T23:59:09.395Z,23.63
